createdAt,value
2018-04-18T00:00:55.526Z,1021.70
2018-04-18T00:01:55.508Z,1021.67
2018-04-18T00:02:55.498Z,1021.73
2018-04-18T00:03:55.481Z,1021.76
2018-04-18T00:04:55.473Z,1021.75
2018-04-18T00:05:55.454Z,1021.77
2018-04-18T00:06:55.443Z,1021.77
2018-04-18T00:07:55.423Z,1021.77
2018-04-18T00:08:55.423Z,1021.74
2018-04-18T00:09:55.398Z,1021.75
2018-04-18T00:10:55.385Z,1021.76
2018-04-18T00:11:55.376Z,1021.78
2018-04-18T00:12:55.353Z,1021.80
2018-04-18T00:13:55.340Z,1021.78
2018-04-18T00:14:55.334Z,1021.79
2018-04-18T00:15:55.315Z,1021.84
2018-04-18T00:16:55.303Z,1021.80
2018-04-18T00:17:55.289Z,1021.83
2018-04-18T00:18:55.274Z,1021.85
2018-04-18T00:19:55.256Z,1021.85
2018-04-18T00:20:55.252Z,1021.87
2018-04-18T00:21:55.231Z,1021.89
2018-04-18T00:22:55.222Z,1021.89
2018-04-18T00:23:55.202Z,1021.94
2018-04-18T00:24:55.198Z,1021.87
2018-04-18T00:25:55.183Z,1021.89
2018-04-18T00:26:55.198Z,1021.87
2018-04-18T00:27:55.152Z,1021.89
2018-04-18T00:28:55.131Z,1021.88
2018-04-18T00:29:55.122Z,1021.91
2018-04-18T00:30:55.110Z,1021.92
2018-04-18T00:31:55.107Z,1021.92
2018-04-18T00:32:55.080Z,1021.94
2018-04-18T00:33:55.070Z,1021.97
2018-04-18T00:34:55.053Z,1021.96
2018-04-18T00:35:55.090Z,1021.98
2018-04-18T00:36:55.027Z,1022.00
2018-04-18T00:37:55.110Z,1022.01
2018-04-18T00:38:55.002Z,1022.01
2018-04-18T00:39:54.984Z,1022.01
2018-04-18T00:40:54.975Z,1022.00
2018-04-18T00:41:55.027Z,1022.02
2018-04-18T00:42:54.944Z,1022.00
2018-04-18T00:43:55.082Z,1022.04
2018-04-18T00:44:54.914Z,1022.06
2018-04-18T00:45:55.004Z,1022.05
2018-04-18T00:46:54.884Z,1022.10
2018-04-18T00:47:54.943Z,1022.10
2018-04-18T00:48:54.858Z,1022.08
2018-04-18T00:49:54.864Z,1022.09
2018-04-18T00:50:54.833Z,1022.11
2018-04-18T00:51:54.871Z,1022.13
2018-04-18T00:52:54.803Z,1022.11
2018-04-18T00:53:54.788Z,1022.14
2018-04-18T00:54:54.774Z,1022.15
2018-04-18T00:55:54.807Z,1022.20
2018-04-18T00:56:54.744Z,1022.19
2018-04-18T00:57:54.729Z,1022.17
2018-04-18T00:58:54.719Z,1022.17
2018-04-18T00:59:54.706Z,1022.17
2018-04-18T01:00:54.694Z,1022.19
2018-04-18T01:01:54.674Z,1022.16
2018-04-18T01:02:54.663Z,1022.18
2018-04-18T01:03:54.652Z,1022.21
2018-04-18T01:04:54.634Z,1022.19
2018-04-18T01:05:54.623Z,1022.24
2018-04-18T01:06:54.607Z,1022.23
2018-04-18T01:07:54.595Z,1022.22
2018-04-18T01:08:54.574Z,1022.22
2018-04-18T01:09:54.563Z,1022.21
2018-04-18T01:10:54.550Z,1022.25
2018-04-18T01:11:54.535Z,1022.26
2018-04-18T01:12:54.524Z,1022.26
2018-04-18T01:13:54.514Z,1022.25
2018-04-18T01:14:54.494Z,1022.26
2018-04-18T01:15:54.476Z,1022.26
2018-04-18T01:16:54.462Z,1022.27
2018-04-18T01:17:54.454Z,1022.26
2018-04-18T01:18:54.437Z,1022.27
2018-04-18T01:19:54.428Z,1022.26
2018-04-18T01:20:54.409Z,1022.25
2018-04-18T01:21:54.391Z,1022.21
2018-04-18T01:22:54.380Z,1022.20
2018-04-18T01:23:54.363Z,1022.22
2018-04-18T01:24:54.347Z,1022.16
2018-04-18T01:25:54.331Z,1022.18
2018-04-18T01:26:54.321Z,1022.17
2018-04-18T01:27:54.305Z,1022.18
2018-04-18T01:28:54.292Z,1022.16
2018-04-18T01:29:54.276Z,1022.18
2018-04-18T01:30:54.264Z,1022.18
2018-04-18T01:31:54.253Z,1022.20
2018-04-18T01:32:54.235Z,1022.18
2018-04-18T01:33:54.220Z,1022.20
2018-04-18T01:34:54.203Z,1022.20
2018-04-18T01:35:54.189Z,1022.21
2018-04-18T01:36:54.182Z,1022.20
2018-04-18T01:37:54.161Z,1022.21
2018-04-18T01:38:54.150Z,1022.25
2018-04-18T01:39:54.135Z,1022.22
2018-04-18T01:40:54.119Z,1022.24
2018-04-18T01:41:54.105Z,1022.25
2018-04-18T01:42:54.090Z,1022.25
2018-04-18T01:43:54.075Z,1022.25
2018-04-18T01:44:54.064Z,1022.28
2018-04-18T01:45:54.047Z,1022.27
2018-04-18T01:46:54.036Z,1022.24
2018-04-18T01:47:54.023Z,1022.24
2018-04-18T01:48:54.003Z,1022.27
2018-04-18T01:49:53.993Z,1022.29
2018-04-18T01:50:53.973Z,1022.25
2018-04-18T01:51:53.962Z,1022.31
2018-04-18T01:52:53.947Z,1022.34
2018-04-18T01:53:53.934Z,1022.35
2018-04-18T01:54:53.918Z,1022.33
2018-04-18T01:55:53.903Z,1022.35
2018-04-18T01:56:53.894Z,1022.35
2018-04-18T01:57:53.874Z,1022.40
2018-04-18T01:58:53.864Z,1022.43
2018-04-18T01:59:53.846Z,1022.48
2018-04-18T02:00:53.834Z,1022.47
2018-04-18T02:01:53.814Z,1022.47
2018-04-18T02:02:53.801Z,1022.41
2018-04-18T02:03:53.787Z,1022.49
2018-04-18T02:04:53.771Z,1022.47
2018-04-18T02:05:53.756Z,1022.41
2018-04-18T02:06:53.742Z,1022.46
2018-04-18T02:07:53.728Z,1022.44
2018-04-18T02:08:53.713Z,1022.44
2018-04-18T02:09:53.703Z,1022.45
2018-04-18T02:10:53.683Z,1022.46
2018-04-18T02:11:53.669Z,1022.47
2018-04-18T02:12:53.658Z,1022.49
2018-04-18T02:13:53.644Z,1022.49
2018-04-18T02:14:53.623Z,1022.54
2018-04-18T02:15:53.612Z,1022.53
2018-04-18T02:16:53.599Z,1022.53
2018-04-18T02:17:53.583Z,1022.52
2018-04-18T02:18:53.566Z,1022.54
2018-04-18T02:19:53.550Z,1022.55
2018-04-18T02:20:53.535Z,1022.55
2018-04-18T02:21:53.520Z,1022.58
2018-04-18T02:22:53.514Z,1022.58
2018-04-18T02:23:53.491Z,1022.60
2018-04-18T02:24:53.584Z,1022.61
2018-04-18T02:25:53.462Z,1022.64
2018-04-18T02:26:53.553Z,1022.64
2018-04-18T02:27:53.437Z,1022.64
2018-04-18T02:28:53.454Z,1022.63
2018-04-18T02:29:53.406Z,1022.63
2018-04-18T02:30:53.395Z,1022.64
2018-04-18T02:31:53.380Z,1022.65
2018-04-18T02:32:53.414Z,1022.63
2018-04-18T02:33:53.346Z,1022.67
2018-04-18T02:34:53.333Z,1022.66
2018-04-18T02:35:53.317Z,1022.65
2018-04-18T02:36:53.302Z,1022.69
2018-04-18T02:37:53.293Z,1022.65
2018-04-18T02:38:53.320Z,1022.67
2018-04-18T02:39:53.257Z,1022.67
2018-04-18T02:40:53.293Z,1022.70
2018-04-18T02:41:53.234Z,1022.71
2018-04-18T02:42:53.319Z,1022.72
2018-04-18T02:43:53.215Z,1022.71
2018-04-18T02:44:53.487Z,1022.70
2018-04-18T02:45:53.167Z,1022.73
2018-04-18T02:46:53.155Z,1022.71
2018-04-18T02:47:53.146Z,1022.74
2018-04-18T02:48:53.175Z,1022.73
2018-04-18T02:49:53.112Z,1022.75
2018-04-18T02:50:53.099Z,1022.76
2018-04-18T02:51:53.091Z,1022.76
2018-04-18T02:52:53.061Z,1022.75
2018-04-18T02:53:53.048Z,1022.77
2018-04-18T02:54:53.033Z,1022.76
2018-04-18T02:55:53.016Z,1022.78
2018-04-18T02:56:53.003Z,1022.78
2018-04-18T02:57:52.995Z,1022.81
2018-04-18T02:58:52.973Z,1022.83
2018-04-18T02:59:52.960Z,1022.85
2018-04-18T03:00:52.942Z,1022.81
2018-04-18T03:01:52.931Z,1022.86
2018-04-18T03:02:52.916Z,1022.87
2018-04-18T03:03:53.154Z,1022.86
2018-04-18T03:04:52.879Z,1022.87
2018-04-18T03:05:52.868Z,1022.88
2018-04-18T03:06:52.855Z,1022.88
2018-04-18T03:07:52.842Z,1022.88
2018-04-18T03:08:52.823Z,1022.89
2018-04-18T03:09:52.809Z,1022.90
2018-04-18T03:10:52.810Z,1022.89
2018-04-18T03:11:52.774Z,1022.90
2018-04-18T03:12:52.763Z,1022.96
2018-04-18T03:13:52.746Z,1022.94
2018-04-18T03:14:52.732Z,1022.98
2018-04-18T03:15:52.716Z,1022.96
2018-04-18T03:16:52.698Z,1022.98
2018-04-18T03:17:52.690Z,1023.01
2018-04-18T03:18:52.679Z,1023.00
2018-04-18T03:19:52.651Z,1023.04
2018-04-18T03:20:52.643Z,1023.01
2018-04-18T03:21:52.623Z,1023.00
2018-04-18T03:22:52.616Z,1023.03
2018-04-18T03:23:52.593Z,1023.02
2018-04-18T03:24:52.583Z,1023.04
2018-04-18T03:25:52.562Z,1023.06
2018-04-18T03:26:52.547Z,1023.08
2018-04-18T03:27:52.532Z,1023.08
2018-04-18T03:28:52.518Z,1023.08
2018-04-18T03:29:52.507Z,1023.12
2018-04-18T03:30:52.494Z,1023.13
2018-04-18T03:31:52.475Z,1023.10
2018-04-18T03:32:52.464Z,1023.11
2018-04-18T03:33:52.445Z,1023.04
2018-04-18T03:34:52.431Z,1023.14
2018-04-18T03:35:52.452Z,1023.13
2018-04-18T03:36:52.399Z,1023.12
2018-04-18T03:37:52.382Z,1023.14
2018-04-18T03:38:52.372Z,1023.14
2018-04-18T03:39:52.354Z,1023.17
2018-04-18T03:40:52.408Z,1023.15
2018-04-18T03:41:52.319Z,1023.17
2018-04-18T03:42:52.305Z,1023.19
2018-04-18T03:43:52.293Z,1023.17
2018-04-18T03:44:52.277Z,1023.24
2018-04-18T03:45:52.260Z,1023.24
2018-04-18T03:46:52.242Z,1023.24
2018-04-18T03:47:52.233Z,1023.25
2018-04-18T03:48:52.212Z,1023.23
2018-04-18T03:49:52.202Z,1023.23
2018-04-18T03:50:52.183Z,1023.24
2018-04-18T03:51:52.172Z,1023.24
2018-04-18T03:52:52.152Z,1023.27
2018-04-18T03:53:52.137Z,1023.31
2018-04-18T03:54:52.121Z,1023.30
2018-04-18T03:55:52.107Z,1023.32
2018-04-18T03:56:52.092Z,1023.31
2018-04-18T03:57:52.077Z,1023.34
2018-04-18T03:58:52.061Z,1023.34
2018-04-18T03:59:52.043Z,1023.35
2018-04-18T04:00:52.031Z,1023.38
2018-04-18T04:01:52.025Z,1023.39
2018-04-18T04:02:51.999Z,1023.41
2018-04-18T04:03:51.984Z,1023.42
2018-04-18T04:04:51.971Z,1023.38
2018-04-18T04:05:51.952Z,1023.41
2018-04-18T04:06:51.943Z,1023.41
2018-04-18T04:07:51.922Z,1023.36
2018-04-18T04:08:51.907Z,1023.39
2018-04-18T04:09:51.905Z,1023.38
2018-04-18T04:10:51.878Z,1023.39
2018-04-18T04:11:51.863Z,1023.38
2018-04-18T04:12:51.851Z,1023.43
2018-04-18T04:13:51.834Z,1023.41
2018-04-18T04:14:51.813Z,1023.45
2018-04-18T04:15:51.803Z,1023.47
2018-04-18T04:16:51.785Z,1023.46
2018-04-18T04:17:51.772Z,1023.45
2018-04-18T04:18:51.753Z,1023.45
2018-04-18T04:19:51.740Z,1023.45
2018-04-18T04:20:51.721Z,1023.48
2018-04-18T04:21:51.710Z,1023.46
2018-04-18T04:22:51.692Z,1023.47
2018-04-18T04:23:51.676Z,1023.46
2018-04-18T04:24:51.717Z,1023.49
2018-04-18T04:25:51.644Z,1023.48
2018-04-18T04:26:51.634Z,1023.47
2018-04-18T04:27:51.713Z,1023.48
2018-04-18T04:28:51.598Z,1023.51
2018-04-18T04:29:51.664Z,1023.52
2018-04-18T04:30:51.567Z,1023.51
2018-04-18T04:31:51.550Z,1023.52
2018-04-18T04:32:51.535Z,1023.53
2018-04-18T04:33:51.623Z,1023.53
2018-04-18T04:34:51.507Z,1023.51
2018-04-18T04:35:51.591Z,1023.54
2018-04-18T04:36:51.474Z,1023.58
2018-04-18T04:37:51.558Z,1023.56
2018-04-18T04:38:51.442Z,1023.59
2018-04-18T04:39:51.481Z,1023.60
2018-04-18T04:40:51.411Z,1023.65
2018-04-18T04:41:51.407Z,1023.65
2018-04-18T04:42:51.388Z,1023.63
2018-04-18T04:43:51.368Z,1023.64
2018-04-18T04:44:51.364Z,1023.63
2018-04-18T04:45:51.332Z,1023.67
2018-04-18T04:46:51.318Z,1023.69
2018-04-18T04:47:51.306Z,1023.67
2018-04-18T04:48:51.288Z,1023.70
2018-04-18T04:49:51.272Z,1023.67
2018-04-18T04:50:51.255Z,1023.67
2018-04-18T04:51:51.250Z,1023.69
2018-04-18T04:52:51.224Z,1023.68
2018-04-18T04:53:51.209Z,1023.71
2018-04-18T04:54:51.196Z,1023.71
2018-04-18T04:55:51.186Z,1023.72
2018-04-18T04:56:51.162Z,1023.75
2018-04-18T04:57:51.146Z,1023.76
2018-04-18T04:58:51.133Z,1023.79
2018-04-18T04:59:51.124Z,1023.80
2018-04-18T05:00:51.101Z,1023.82
2018-04-18T05:01:51.091Z,1023.83
2018-04-18T05:02:51.080Z,1023.83
2018-04-18T05:03:51.059Z,1023.81
2018-04-18T05:04:51.047Z,1023.81
2018-04-18T05:05:51.023Z,1023.82
2018-04-18T05:06:51.011Z,1023.83
2018-04-18T05:07:50.992Z,1023.83
2018-04-18T05:08:50.980Z,1023.87
2018-04-18T05:09:50.962Z,1023.91
2018-04-18T05:10:50.950Z,1023.91
2018-04-18T05:11:50.933Z,1023.92
2018-04-18T05:12:50.919Z,1023.95
2018-04-18T05:13:50.900Z,1023.93
2018-04-18T05:14:50.882Z,1023.92
2018-04-18T05:15:50.871Z,1023.92
2018-04-18T05:16:50.854Z,1023.98
2018-04-18T05:17:50.838Z,1023.98
2018-04-18T05:18:50.824Z,1024.00
2018-04-18T05:19:50.814Z,1024.04
2018-04-18T05:20:50.811Z,1024.07
2018-04-18T05:21:50.775Z,1024.06
2018-04-18T05:22:50.763Z,1024.03
2018-04-18T05:23:50.744Z,1024.08
2018-04-18T05:24:50.730Z,1024.09
2018-04-18T05:25:50.710Z,1024.12
2018-04-18T05:26:50.695Z,1024.16
2018-04-18T05:27:50.680Z,1024.15
2018-04-18T05:28:50.664Z,1024.15
2018-04-18T05:29:50.654Z,1024.15
2018-04-18T05:30:50.666Z,1024.16
2018-04-18T05:31:50.625Z,1024.19
2018-04-18T05:32:50.609Z,1024.21
2018-04-18T05:33:50.587Z,1024.25
2018-04-18T05:34:50.572Z,1024.23
2018-04-18T05:35:50.552Z,1024.21
2018-04-18T05:36:50.550Z,1024.21
2018-04-18T05:37:50.529Z,1024.25
2018-04-18T05:38:50.516Z,1024.26
2018-04-18T05:39:50.494Z,1024.22
2018-04-18T05:40:50.473Z,1024.29
2018-04-18T05:41:50.461Z,1024.29
2018-04-18T05:42:50.447Z,1024.28
2018-04-18T05:43:50.425Z,1024.32
2018-04-18T05:44:50.409Z,1024.38
2018-04-18T05:45:50.392Z,1024.38
2018-04-18T05:46:50.384Z,1024.37
2018-04-18T05:47:50.362Z,1024.41
2018-04-18T05:48:50.346Z,1024.43
2018-04-18T05:49:50.328Z,1024.42
2018-04-18T05:50:50.324Z,1024.48
2018-04-18T05:51:50.298Z,1024.46
2018-04-18T05:52:50.284Z,1024.48
2018-04-18T05:53:50.267Z,1024.51
2018-04-18T05:54:50.286Z,1024.48
2018-04-18T05:55:50.244Z,1024.52
2018-04-18T05:56:50.236Z,1024.51
2018-04-18T05:57:50.227Z,1024.52
2018-04-18T05:58:50.194Z,1024.56
2018-04-18T05:59:50.178Z,1024.51
2018-04-18T06:00:50.174Z,1024.55
2018-04-18T06:01:50.145Z,1024.56
2018-04-18T06:02:50.132Z,1024.55
2018-04-18T06:03:50.124Z,1024.58
2018-04-18T06:04:50.129Z,1024.56
2018-04-18T06:05:50.094Z,1024.60
2018-04-18T06:06:50.073Z,1024.63
2018-04-18T06:07:50.059Z,1024.61
2018-04-18T06:08:50.050Z,1024.61
2018-04-18T06:09:50.023Z,1024.63
2018-04-18T06:10:50.009Z,1024.65
2018-04-18T06:11:49.993Z,1024.66
2018-04-18T06:12:49.983Z,1024.67
2018-04-18T06:13:49.961Z,1024.68
2018-04-18T06:14:49.957Z,1024.69
2018-04-18T06:15:49.938Z,1024.66
2018-04-18T06:16:49.923Z,1024.65
2018-04-18T06:17:49.904Z,1024.72
2018-04-18T06:18:49.895Z,1024.71
2018-04-18T06:19:49.874Z,1024.74
2018-04-18T06:20:49.860Z,1024.76
2018-04-18T06:21:49.842Z,1024.78
2018-04-18T06:22:49.850Z,1024.79
2018-04-18T06:23:49.825Z,1024.82
2018-04-18T06:24:49.867Z,1024.80
2018-04-18T06:25:49.793Z,1024.83
2018-04-18T06:26:49.780Z,1024.81
2018-04-18T06:27:49.766Z,1024.84
2018-04-18T06:28:49.745Z,1024.85
2018-04-18T06:29:49.731Z,1024.84
2018-04-18T06:30:49.773Z,1024.85
2018-04-18T06:31:49.703Z,1024.84
2018-04-18T06:32:49.780Z,1024.89
2018-04-18T06:33:49.674Z,1024.89
2018-04-18T06:34:49.760Z,1024.91
2018-04-18T06:35:49.644Z,1024.92
2018-04-18T06:36:49.641Z,1024.90
2018-04-18T06:37:49.616Z,1024.93
2018-04-18T06:38:49.755Z,1024.96
2018-04-18T06:39:49.593Z,1024.98
2018-04-18T06:40:49.623Z,1024.96
2018-04-18T06:41:49.562Z,1024.98
2018-04-18T06:42:49.562Z,1024.99
2018-04-18T06:43:49.531Z,1025.01
2018-04-18T06:44:49.517Z,1025.04
2018-04-18T06:45:49.532Z,1025.03
2018-04-18T06:46:49.493Z,1025.11
2018-04-18T06:47:49.481Z,1025.14
2018-04-18T06:48:49.464Z,1025.23
2018-04-18T06:49:49.452Z,1025.35
2018-04-18T06:50:49.444Z,1025.45
2018-04-18T06:51:49.433Z,1025.53
2018-04-18T06:52:49.430Z,1025.49
2018-04-18T06:53:49.417Z,1025.58
2018-04-18T06:54:49.401Z,1025.63
2018-04-18T06:55:49.393Z,1025.64
2018-04-18T06:56:49.386Z,1025.74
2018-04-18T06:57:49.370Z,1025.71
2018-04-18T06:58:49.371Z,1025.77
2018-04-18T06:59:49.357Z,1025.83
2018-04-18T07:00:49.353Z,1025.82
2018-04-18T07:01:49.353Z,1025.85
2018-04-18T07:02:49.336Z,1025.87
2018-04-18T07:03:49.335Z,1025.86
2018-04-18T07:04:49.324Z,1025.90
2018-04-18T07:05:49.327Z,1025.89
2018-04-18T07:06:49.315Z,1025.93
2018-04-18T07:07:49.309Z,1025.96
2018-04-18T07:08:49.307Z,1025.99
2018-04-18T07:09:49.301Z,1025.98
2018-04-18T07:10:49.296Z,1025.99
2018-04-18T07:11:49.290Z,1026.04
2018-04-18T07:12:49.290Z,1026.05
2018-04-18T07:13:49.289Z,1026.06
2018-04-18T07:14:49.284Z,1026.09
2018-04-18T07:15:49.289Z,1026.08
2018-04-18T07:16:49.281Z,1026.09
2018-04-18T07:17:49.286Z,1026.16
2018-04-18T07:18:49.279Z,1026.14
2018-04-18T07:19:49.274Z,1026.15
2018-04-18T07:20:49.272Z,1026.16
2018-04-18T07:21:49.273Z,1026.18
2018-04-18T07:22:49.273Z,1026.17
2018-04-18T07:23:49.275Z,1026.18
2018-04-18T07:24:49.274Z,1026.17
2018-04-18T07:25:49.272Z,1026.18
2018-04-18T07:26:49.271Z,1026.20
2018-04-18T07:27:49.273Z,1026.22
2018-04-18T07:28:49.274Z,1026.27
2018-04-18T07:29:49.278Z,1026.25
2018-04-18T07:30:49.274Z,1026.23
2018-04-18T07:31:49.290Z,1026.28
2018-04-18T07:32:49.279Z,1026.27
2018-04-18T07:33:49.288Z,1026.28
2018-04-18T07:34:49.284Z,1026.26
2018-04-18T07:35:49.294Z,1026.28
2018-04-18T07:36:49.297Z,1026.30
2018-04-18T07:37:49.296Z,1026.30
2018-04-18T07:38:49.306Z,1026.31
2018-04-18T07:39:49.308Z,1026.26
2018-04-18T07:40:49.307Z,1026.23
2018-04-18T07:41:49.309Z,1026.26
2018-04-18T07:42:49.312Z,1026.28
2018-04-18T07:43:49.322Z,1026.30
2018-04-18T07:44:49.325Z,1026.30
2018-04-18T07:45:49.325Z,1026.31
2018-04-18T07:46:49.335Z,1026.30
2018-04-18T07:47:49.335Z,1026.30
2018-04-18T07:48:49.345Z,1026.33
2018-04-18T07:49:49.344Z,1026.32
2018-04-18T07:50:49.346Z,1026.29
2018-04-18T07:51:49.355Z,1026.36
2018-04-18T07:52:49.360Z,1026.37
2018-04-18T07:53:49.364Z,1026.38
2018-04-18T07:54:49.374Z,1026.41
2018-04-18T07:55:49.375Z,1026.43
2018-04-18T07:56:49.381Z,1026.44
2018-04-18T07:57:49.383Z,1026.44
2018-04-18T07:58:49.394Z,1026.42
2018-04-18T07:59:49.394Z,1026.43
2018-04-18T08:00:49.407Z,1026.46
2018-04-18T08:01:49.408Z,1026.47
2018-04-18T08:02:49.419Z,1026.45
2018-04-18T08:03:49.424Z,1026.50
2018-04-18T08:04:49.427Z,1026.52
2018-04-18T08:05:49.439Z,1026.49
2018-04-18T08:06:49.434Z,1026.54
2018-04-18T08:07:49.454Z,1026.57
2018-04-18T08:08:49.447Z,1026.58
2018-04-18T08:09:49.454Z,1026.56
2018-04-18T08:10:49.470Z,1026.57
2018-04-18T08:11:49.466Z,1026.60
2018-04-18T08:12:49.477Z,1026.55
2018-04-18T08:13:49.480Z,1026.60
2018-04-18T08:14:49.490Z,1026.60
2018-04-18T08:15:49.493Z,1026.62
2018-04-18T08:16:49.509Z,1026.65
2018-04-18T08:17:49.518Z,1026.65
2018-04-18T08:18:49.518Z,1026.67
2018-04-18T08:19:49.524Z,1026.69
2018-04-18T08:20:49.526Z,1026.67
2018-04-18T08:21:49.565Z,1026.68
2018-04-18T08:22:49.553Z,1026.66
2018-04-18T08:23:49.560Z,1026.65
2018-04-18T08:24:49.557Z,1026.64
2018-04-18T08:25:49.565Z,1026.62
2018-04-18T08:26:49.573Z,1026.62
2018-04-18T08:27:49.586Z,1026.64
2018-04-18T08:28:49.593Z,1026.64
2018-04-18T08:29:49.597Z,1026.63
2018-04-18T08:30:49.605Z,1026.64
2018-04-18T08:31:49.618Z,1026.65
2018-04-18T08:32:49.634Z,1026.66
2018-04-18T08:33:49.626Z,1026.68
2018-04-18T08:34:49.644Z,1026.71
2018-04-18T08:35:49.642Z,1026.71
2018-04-18T08:36:49.647Z,1026.74
2018-04-18T08:37:49.660Z,1026.69
2018-04-18T08:38:49.661Z,1026.72
2018-04-18T08:39:49.675Z,1026.69
2018-04-18T08:40:49.693Z,1026.68
2018-04-18T08:41:49.685Z,1026.69
2018-04-18T08:42:49.700Z,1026.64
2018-04-18T08:43:49.705Z,1026.67
2018-04-18T08:44:49.715Z,1026.69
2018-04-18T08:45:49.719Z,1026.66
2018-04-18T08:46:49.724Z,1026.63
2018-04-18T08:47:49.733Z,1026.61
2018-04-18T08:48:49.780Z,1026.64
2018-04-18T08:49:49.746Z,1026.64
2018-04-18T08:50:49.756Z,1026.62
2018-04-18T08:51:49.765Z,1026.61
2018-04-18T08:52:49.774Z,1026.63
2018-04-18T08:53:49.780Z,1026.69
2018-04-18T08:54:49.783Z,1026.66
2018-04-18T08:55:49.793Z,1026.58
2018-04-18T08:56:49.805Z,1026.67
2018-04-18T08:57:49.807Z,1026.71
2018-04-18T08:58:49.816Z,1026.72
2018-04-18T08:59:49.819Z,1026.73
2018-04-18T09:00:49.834Z,1026.77
2018-04-18T09:01:49.832Z,1026.75
2018-04-18T09:02:49.842Z,1026.73
2018-04-18T09:03:49.844Z,1026.70
2018-04-18T09:04:49.856Z,1026.68
2018-04-18T09:05:49.868Z,1026.59
2018-04-18T09:06:49.872Z,1026.54
2018-04-18T09:07:49.871Z,1026.56
2018-04-18T09:08:49.878Z,1026.50
2018-04-18T09:09:49.934Z,1026.57
2018-04-18T09:10:49.893Z,1026.55
2018-04-18T09:11:49.902Z,1026.51
2018-04-18T09:12:49.901Z,1026.49
2018-04-18T09:13:49.912Z,1026.43
2018-04-18T09:14:49.915Z,1026.42
2018-04-18T09:15:49.924Z,1026.46
2018-04-18T09:16:49.922Z,1026.47
2018-04-18T09:17:49.923Z,1026.48
2018-04-18T09:18:49.932Z,1026.41
2018-04-18T09:19:49.938Z,1026.47
2018-04-18T09:20:49.943Z,1026.45
2018-04-18T09:21:49.942Z,1026.50
2018-04-18T09:22:49.948Z,1026.55
2018-04-18T09:23:49.951Z,1026.53
2018-04-18T09:24:49.950Z,1026.51
2018-04-18T09:25:49.960Z,1026.43
2018-04-18T09:26:49.955Z,1026.46
2018-04-18T09:27:49.962Z,1026.51
2018-04-18T09:28:49.963Z,1026.59
2018-04-18T09:29:49.967Z,1026.54
2018-04-18T09:30:49.968Z,1026.37
2018-04-18T09:31:49.971Z,1026.26
2018-04-18T09:32:49.976Z,1026.19
2018-04-18T09:33:49.981Z,1026.23
2018-04-18T09:34:49.983Z,1026.25
2018-04-18T09:35:49.982Z,1026.22
2018-04-18T09:36:49.981Z,1026.22
2018-04-18T09:37:49.981Z,1026.20
2018-04-18T09:38:49.988Z,1026.17
2018-04-18T09:39:49.987Z,1026.15
2018-04-18T09:40:49.987Z,1026.14
2018-04-18T09:41:49.987Z,1026.10
2018-04-18T09:42:49.987Z,1026.11
2018-04-18T09:43:49.991Z,1026.10
2018-04-18T09:44:49.993Z,1026.10
2018-04-18T09:45:49.990Z,1026.12
2018-04-18T09:46:49.991Z,1026.12
2018-04-18T09:47:50.003Z,1026.10
2018-04-18T09:48:50.000Z,1026.13
2018-04-18T09:49:49.993Z,1026.09
2018-04-18T09:50:49.991Z,1026.08
2018-04-18T09:51:49.992Z,1026.04
2018-04-18T09:52:49.992Z,1026.07
2018-04-18T09:53:50.001Z,1026.00
2018-04-18T09:54:49.993Z,1026.06
2018-04-18T09:55:49.993Z,1025.99
2018-04-18T09:56:49.992Z,1026.01
2018-04-18T09:57:49.991Z,1026.00
2018-04-18T09:58:50.004Z,1026.04
2018-04-18T09:59:49.985Z,1026.01
2018-04-18T10:00:49.991Z,1026.02
2018-04-18T10:01:49.982Z,1025.99
2018-04-18T10:02:49.990Z,1026.00
2018-04-18T10:03:49.984Z,1025.98
2018-04-18T10:04:49.982Z,1025.98
2018-04-18T10:05:49.989Z,1025.93
2018-04-18T10:06:49.975Z,1026.00
2018-04-18T10:07:49.982Z,1025.94
2018-04-18T10:08:49.972Z,1025.97
2018-04-18T10:09:49.972Z,1025.98
2018-04-18T10:10:49.967Z,1025.95
2018-04-18T10:11:49.966Z,1025.93
2018-04-18T10:12:49.967Z,1025.93
2018-04-18T10:13:49.969Z,1025.90
2018-04-18T10:14:49.963Z,1025.88
2018-04-18T10:15:49.967Z,1025.87
2018-04-18T10:16:49.956Z,1025.84
2018-04-18T10:17:49.952Z,1025.85
2018-04-18T10:18:49.951Z,1025.82
2018-04-18T10:19:49.948Z,1025.83
2018-04-18T10:20:49.952Z,1025.76
2018-04-18T10:21:49.939Z,1025.89
2018-04-18T10:22:50.000Z,1025.83
2018-04-18T10:23:49.937Z,1025.84
2018-04-18T10:24:49.936Z,1025.84
2018-04-18T10:25:49.934Z,1025.88
2018-04-18T10:26:49.932Z,1025.84
2018-04-18T10:27:49.930Z,1025.84
2018-04-18T10:28:49.927Z,1025.79
2018-04-18T10:29:49.920Z,1025.84
2018-04-18T10:30:49.924Z,1025.82
2018-04-18T10:31:49.914Z,1025.82
2018-04-18T10:32:49.911Z,1025.85
2018-04-18T10:33:49.911Z,1025.85
2018-04-18T10:34:49.907Z,1025.82
2018-04-18T10:35:49.907Z,1025.84
2018-04-18T10:36:49.903Z,1025.78
2018-04-18T10:37:49.894Z,1025.81
2018-04-18T10:38:49.894Z,1025.82
2018-04-18T10:39:49.892Z,1025.84
2018-04-18T10:40:49.899Z,1025.82
2018-04-18T10:41:49.885Z,1025.82
2018-04-18T10:42:49.879Z,1025.79
2018-04-18T10:43:49.878Z,1025.82
2018-04-18T10:44:49.872Z,1025.82
2018-04-18T10:45:49.872Z,1025.79
2018-04-18T10:46:49.872Z,1025.82
2018-04-18T10:47:49.865Z,1025.79
2018-04-18T10:48:49.862Z,1025.77
2018-04-18T10:49:49.859Z,1025.77
2018-04-18T10:50:49.851Z,1025.74
2018-04-18T10:51:49.847Z,1025.70
2018-04-18T10:52:49.854Z,1025.68
2018-04-18T10:53:49.840Z,1025.65
2018-04-18T10:54:49.835Z,1025.64
2018-04-18T10:55:49.841Z,1025.71
2018-04-18T10:56:49.832Z,1025.66
2018-04-18T10:57:49.834Z,1025.64
2018-04-18T10:58:49.826Z,1025.65
2018-04-18T10:59:49.828Z,1025.65
2018-04-18T11:00:49.841Z,1025.68
2018-04-18T11:01:49.814Z,1025.71
2018-04-18T11:02:49.813Z,1025.70
2018-04-18T11:03:49.805Z,1025.74
2018-04-18T11:04:49.802Z,1025.69
2018-04-18T11:05:49.846Z,1025.67
2018-04-18T11:06:49.797Z,1025.70
2018-04-18T11:07:49.845Z,1025.64
2018-04-18T11:08:49.797Z,1025.64
2018-04-18T11:09:49.792Z,1025.63
2018-04-18T11:10:49.785Z,1025.61
2018-04-18T11:11:49.830Z,1025.63
2018-04-18T11:12:49.776Z,1025.63
2018-04-18T11:13:49.775Z,1025.64
2018-04-18T11:14:49.776Z,1025.60
2018-04-18T11:15:49.813Z,1025.60
2018-04-18T11:16:49.762Z,1025.59
2018-04-18T11:17:49.760Z,1025.57
2018-04-18T11:18:49.751Z,1025.56
2018-04-18T11:19:49.752Z,1025.55
2018-04-18T11:20:49.758Z,1025.52
2018-04-18T11:21:49.745Z,1025.54
2018-04-18T11:22:49.736Z,1025.57
2018-04-18T11:23:49.746Z,1025.54
2018-04-18T11:24:49.732Z,1025.58
2018-04-18T11:25:49.729Z,1025.60
2018-04-18T11:26:49.723Z,1025.64
2018-04-18T11:27:49.723Z,1025.59
2018-04-18T11:28:49.723Z,1025.58
2018-04-18T11:29:49.716Z,1025.58
2018-04-18T11:30:49.714Z,1025.59
2018-04-18T11:31:49.707Z,1025.58
2018-04-18T11:32:49.706Z,1025.55
2018-04-18T11:33:49.705Z,1025.59
2018-04-18T11:34:49.698Z,1025.58
2018-04-18T11:35:49.702Z,1025.57
2018-04-18T11:36:49.702Z,1025.58
2018-04-18T11:37:49.690Z,1025.53
2018-04-18T11:38:49.689Z,1025.53
2018-04-18T11:39:49.719Z,1025.48
2018-04-18T11:40:49.684Z,1025.52
2018-04-18T11:41:49.677Z,1025.51
2018-04-18T11:42:49.775Z,1025.51
2018-04-18T11:43:49.673Z,1025.49
2018-04-18T11:44:49.727Z,1025.48
2018-04-18T11:45:49.663Z,1025.44
2018-04-18T11:46:49.771Z,1025.48
2018-04-18T11:47:49.654Z,1025.44
2018-04-18T11:48:49.653Z,1025.45
2018-04-18T11:49:49.645Z,1025.40
2018-04-18T11:50:49.644Z,1025.43
2018-04-18T11:51:49.640Z,1025.41
2018-04-18T11:52:49.643Z,1025.38
2018-04-18T11:53:49.634Z,1025.36
2018-04-18T11:54:49.631Z,1025.35
2018-04-18T11:55:49.627Z,1025.37
2018-04-18T11:56:49.620Z,1025.37
2018-04-18T11:57:49.625Z,1025.38
2018-04-18T11:58:49.611Z,1025.36
2018-04-18T11:59:49.619Z,1025.36
2018-04-18T12:00:49.605Z,1025.36
2018-04-18T12:01:49.605Z,1025.35
2018-04-18T12:02:49.606Z,1025.37
2018-04-18T12:03:49.595Z,1025.35
2018-04-18T12:04:49.589Z,1025.36
2018-04-18T12:05:49.586Z,1025.36